createdAt,value
2022-08-23T00:02:01.011Z,62.12
2022-08-23T00:04:37.138Z,61.81
2022-08-23T00:07:08.433Z,62.08
2022-08-23T00:09:35.637Z,62.71
2022-08-23T00:12:22.667Z,62.74
2022-08-23T00:14:57.294Z,63.53
2022-08-23T00:17:34.642Z,62.07
2022-08-23T00:20:08.318Z,62.65
2022-08-23T00:22:36.880Z,62.62
2022-08-23T00:25:09.975Z,63.30
2022-08-23T00:27:37.970Z,63.09
2022-08-23T00:30:22.186Z,63.06
2022-08-23T00:32:51.701Z,63.03
2022-08-23T00:35:27.532Z,62.99
2022-08-23T00:38:32.028Z,61.96
2022-08-23T00:40:53.241Z,62.71
2022-08-23T00:43:47.598Z,62.33
2022-08-23T00:47:23.843Z,62.60
2022-08-23T00:50:23.849Z,63.04
2022-08-23T00:53:08.652Z,63.52
2022-08-23T00:55:37.025Z,63.47
2022-08-23T00:58:04.471Z,63.65
2022-08-23T01:00:34.437Z,64.30
2022-08-23T01:03:07.067Z,63.73
2022-08-23T01:06:06.599Z,63.23
2022-08-23T01:08:37.852Z,62.77
2022-08-23T01:11:18.951Z,62.30
2022-08-23T01:13:55.210Z,62.08
2022-08-23T01:16:51.136Z,62.05
2022-08-23T01:19:48.530Z,62.10
2022-08-23T01:23:02.703Z,62.24
2022-08-23T01:25:33.981Z,62.09
2022-08-23T01:28:01.457Z,61.49
2022-08-23T01:30:32.658Z,61.75
2022-08-23T01:33:05.522Z,61.22
2022-08-23T01:35:42.680Z,60.89
2022-08-23T01:38:13.179Z,61.68
2022-08-23T01:40:40.941Z,61.07
2022-08-23T01:43:13.618Z,60.94
2022-08-23T01:45:44.123Z,61.28
2022-08-23T01:48:10.986Z,61.59
2022-08-23T01:53:14.382Z,60.58
2022-08-23T01:55:48.458Z,60.61
2022-08-23T01:58:15.410Z,60.33
2022-08-23T02:00:45.988Z,60.57
2022-08-23T02:03:13.497Z,60.67
2022-08-23T02:05:42.745Z,61.02
2022-08-23T02:08:28.307Z,60.51
2022-08-23T02:10:57.456Z,61.69
2022-08-23T02:13:24.392Z,61.71
2022-08-23T02:15:55.174Z,61.35
2022-08-23T02:18:22.570Z,61.18
2022-08-23T02:20:52.447Z,61.32
2022-08-23T02:23:23.273Z,62.00
2022-08-23T02:25:54.189Z,63.34
2022-08-23T02:28:23.530Z,62.91
2022-08-23T02:30:54.140Z,62.67
2022-08-23T02:33:23.554Z,62.38
2022-08-23T02:35:52.584Z,62.98
2022-08-23T02:38:19.479Z,62.46
2022-08-23T02:40:52.937Z,62.98
2022-08-23T02:43:35.008Z,63.16
2022-08-23T02:46:06.593Z,62.33
2022-08-23T02:48:41.454Z,62.13
2022-08-23T02:51:14.009Z,61.61
2022-08-23T02:53:43.394Z,61.56
2022-08-23T02:56:21.286Z,62.32
2022-08-23T02:58:53.986Z,63.33
2022-08-23T03:01:37.055Z,62.88
2022-08-23T03:04:07.469Z,63.75
2022-08-23T03:06:34.947Z,63.49
2022-08-23T03:09:05.014Z,63.29
2022-08-23T03:11:32.205Z,63.65
2022-08-23T03:14:00.651Z,63.78
2022-08-23T03:16:27.833Z,63.26
2022-08-23T03:18:57.291Z,63.32
2022-08-23T03:21:24.200Z,62.66
2022-08-23T03:23:51.635Z,62.38
2022-08-23T03:26:18.634Z,63.32
2022-08-23T03:28:51.770Z,63.97
2022-08-23T03:31:22.141Z,62.94
2022-08-23T03:33:51.450Z,63.74
2022-08-23T03:36:19.086Z,63.68
2022-08-23T03:38:58.192Z,63.95
2022-08-23T03:41:25.564Z,63.47
2022-08-23T03:43:52.795Z,62.81
2022-08-23T03:46:25.973Z,63.06
2022-08-23T03:48:59.422Z,63.79
2022-08-23T03:51:31.233Z,64.21
2022-08-23T03:53:59.096Z,63.86
2022-08-23T03:56:40.280Z,64.49
2022-08-23T03:59:12.930Z,64.11
2022-08-23T04:01:39.890Z,63.94
2022-08-23T04:04:09.316Z,64.10
2022-08-23T04:06:36.402Z,63.91
2022-08-23T04:09:07.401Z,64.32
2022-08-23T04:11:34.386Z,64.58
2022-08-23T04:14:01.286Z,64.64
2022-08-23T04:16:33.375Z,64.72
2022-08-23T04:19:02.556Z,64.58
2022-08-23T04:21:29.495Z,64.56
2022-08-23T04:23:56.562Z,63.64
2022-08-23T04:26:28.377Z,63.48
2022-08-23T04:28:57.299Z,64.45
2022-08-23T04:31:26.524Z,65.09
2022-08-23T04:33:55.602Z,65.46
2022-08-23T04:36:25.744Z,64.61
2022-08-23T04:38:55.683Z,64.31
2022-08-23T04:41:41.035Z,64.18
2022-08-23T04:44:08.098Z,64.67
2022-08-23T04:46:37.501Z,63.72
2022-08-23T04:49:04.373Z,63.34
2022-08-23T04:51:33.489Z,62.46
2022-08-23T04:54:02.945Z,61.58
2022-08-23T04:56:30.529Z,61.61
2022-08-23T04:58:57.932Z,61.31
2022-08-23T05:01:25.611Z,59.87
2022-08-23T05:03:54.509Z,61.43
2022-08-23T05:06:23.311Z,61.81
2022-08-23T05:08:50.320Z,61.84
2022-08-23T05:11:19.067Z,61.57
2022-08-23T05:13:48.602Z,61.00
2022-08-23T05:16:16.116Z,60.23
2022-08-23T05:18:43.240Z,59.87
2022-08-23T05:21:16.328Z,60.26
2022-08-23T05:23:43.908Z,60.61
2022-08-23T05:26:20.630Z,60.71
2022-08-23T05:28:49.570Z,60.14
2022-08-23T05:31:26.653Z,59.84
2022-08-23T05:33:53.968Z,59.51
2022-08-23T05:36:23.950Z,59.36
2022-08-23T05:38:53.480Z,59.91
2022-08-23T05:41:35.195Z,59.44
2022-08-23T05:44:05.281Z,59.51
2022-08-23T05:46:36.716Z,58.77
2022-08-23T05:49:09.564Z,59.13
2022-08-23T05:51:38.515Z,58.74
2022-08-23T05:54:08.014Z,57.97
2022-08-23T05:56:42.601Z,57.30
2022-08-23T05:59:15.894Z,56.42
2022-08-23T06:01:43.862Z,56.10
2022-08-23T06:04:17.406Z,56.19
2022-08-23T06:06:44.833Z,56.66
2022-08-23T06:09:15.911Z,57.15
2022-08-23T06:11:52.972Z,57.02
2022-08-23T06:14:24.503Z,58.12
2022-08-23T06:16:55.797Z,57.47
2022-08-23T06:19:24.120Z,58.21
2022-08-23T06:21:52.307Z,57.87
2022-08-23T06:24:24.705Z,57.00
2022-08-23T06:26:51.688Z,56.49
2022-08-23T06:29:20.325Z,56.42
2022-08-23T06:31:50.558Z,55.88
2022-08-23T06:34:19.615Z,56.43
2022-08-23T06:36:49.585Z,56.92
2022-08-23T06:39:22.204Z,56.32
2022-08-23T06:41:51.712Z,56.27
2022-08-23T06:44:19.821Z,54.99
2022-08-23T06:46:48.766Z,54.29
2022-08-23T06:49:16.507Z,53.73
2022-08-23T06:51:49.607Z,53.96
2022-08-23T06:54:26.540Z,53.09
2022-08-23T06:56:58.335Z,52.51
2022-08-23T06:59:28.354Z,52.40
2022-08-23T07:02:07.258Z,51.80
2022-08-23T07:04:38.561Z,53.00
2022-08-23T07:07:11.619Z,52.81
2022-08-23T07:09:40.590Z,52.48
2022-08-23T07:12:08.094Z,52.58
2022-08-23T07:14:36.655Z,52.61
2022-08-23T07:17:06.482Z,52.97
2022-08-23T07:19:43.912Z,53.04
2022-08-23T07:22:15.737Z,53.04
2022-08-23T07:24:43.039Z,52.92
2022-08-23T07:27:10.035Z,52.10
2022-08-23T07:29:37.767Z,51.64
2022-08-23T07:32:08.118Z,52.74
2022-08-23T07:34:35.589Z,52.19
2022-08-23T07:37:11.466Z,51.42
2022-08-23T07:39:45.125Z,51.99
2022-08-23T07:42:23.019Z,51.80
2022-08-23T07:44:52.656Z,50.33
2022-08-23T07:47:20.722Z,49.89
2022-08-23T07:49:51.035Z,50.04
2022-08-23T07:52:17.906Z,49.57
2022-08-23T07:54:48.672Z,48.67
2022-08-23T07:57:17.647Z,48.38
2022-08-23T07:59:44.923Z,47.17
2022-08-23T08:02:15.874Z,47.47
2022-08-23T08:04:43.154Z,47.37
2022-08-23T08:07:19.380Z,47.63
2022-08-23T08:09:49.963Z,47.52
2022-08-23T08:12:17.640Z,47.62
2022-08-23T08:14:45.167Z,48.97
2022-08-23T08:17:14.616Z,49.07
2022-08-23T08:19:43.788Z,49.29
2022-08-23T08:22:10.825Z,49.14
2022-08-23T08:24:37.758Z,48.10
2022-08-23T08:27:05.574Z,47.84
2022-08-23T08:29:33.008Z,46.80
2022-08-23T08:32:00.264Z,47.02
2022-08-23T08:34:28.254Z,46.95
2022-08-23T08:36:58.930Z,46.83
2022-08-23T08:39:31.550Z,45.90
2022-08-23T08:42:10.395Z,45.28
2022-08-23T08:45:07.409Z,46.06
2022-08-23T08:47:54.523Z,45.13
2022-08-23T08:50:29.200Z,44.44
2022-08-23T08:53:09.087Z,44.02
2022-08-23T08:55:50.286Z,42.94
2022-08-23T08:58:28.999Z,41.83
2022-08-23T09:00:56.866Z,42.81
2022-08-23T09:03:33.099Z,43.87
2022-08-23T09:06:15.137Z,43.15
2022-08-23T09:08:57.119Z,42.86
2022-08-23T09:11:30.270Z,42.46
2022-08-23T09:14:43.732Z,42.92
2022-08-23T09:17:51.651Z,41.43
2022-08-23T09:20:23.181Z,41.61
2022-08-23T09:23:12.252Z,41.13
2022-08-23T09:25:39.248Z,40.58
2022-08-23T09:28:07.297Z,38.72
2022-08-23T09:30:56.604Z,38.97
2022-08-23T09:33:49.264Z,38.89
2022-08-23T09:36:25.480Z,38.32
2022-08-23T09:39:00.019Z,37.33
2022-08-23T09:41:43.605Z,37.47
2022-08-23T09:44:32.713Z,37.60
2022-08-23T09:47:17.250Z,37.06
2022-08-23T09:49:54.494Z,36.09
2022-08-23T09:52:27.730Z,36.31
2022-08-23T09:54:58.949Z,36.11
2022-08-23T09:57:29.942Z,36.83
2022-08-23T10:00:23.479Z,36.06
2022-08-23T10:02:57.853Z,36.46
2022-08-23T10:05:50.713Z,36.24
2022-08-23T10:08:35.948Z,35.51
2022-08-23T10:11:39.080Z,34.25
2022-08-23T10:14:07.085Z,33.53
2022-08-23T10:17:17.160Z,34.38
2022-08-23T10:20:25.305Z,34.34
2022-08-23T10:23:06.337Z,33.21
2022-08-23T10:25:47.367Z,33.49
2022-08-23T10:29:05.217Z,33.36
2022-08-23T10:31:47.315Z,32.78
2022-08-23T10:34:30.067Z,31.76
2022-08-23T10:37:51.689Z,31.69
2022-08-23T10:40:34.932Z,31.48
2022-08-23T10:43:36.918Z,31.05
2022-08-23T10:46:07.515Z,30.94
2022-08-23T10:48:55.195Z,31.06
2022-08-23T10:51:31.870Z,31.60
2022-08-23T10:54:13.229Z,30.00
2022-08-23T10:56:51.207Z,29.84
2022-08-23T10:59:26.749Z,29.95
2022-08-23T11:02:31.569Z,31.20
2022-08-23T11:05:20.416Z,30.63
2022-08-23T11:08:06.484Z,29.71
2022-08-23T11:10:42.020Z,29.09
2022-08-23T11:13:29.472Z,29.10
2022-08-23T11:16:23.511Z,29.35
2022-08-23T11:18:52.897Z,28.58
2022-08-23T11:21:25.709Z,28.64
2022-08-23T11:23:58.887Z,29.23
2022-08-23T11:26:29.777Z,29.36
2022-08-23T11:29:23.842Z,28.62
2022-08-23T11:32:20.257Z,27.91
2022-08-23T11:35:09.071Z,28.19
2022-08-23T11:38:05.336Z,27.76
2022-08-23T11:40:55.746Z,28.87
2022-08-23T11:43:31.497Z,28.85
2022-08-23T11:46:27.967Z,29.52
2022-08-23T11:49:25.270Z,28.40
2022-08-23T11:52:36.949Z,28.21
2022-08-23T11:55:37.581Z,27.93
2022-08-23T11:58:23.976Z,27.63
2022-08-23T12:01:08.371Z,26.86
2022-08-23T12:04:00.251Z,26.48
2022-08-23T12:06:51.165Z,27.89
2022-08-23T12:09:24.556Z,28.20
2022-08-23T12:11:57.186Z,28.83
2022-08-23T12:14:47.540Z,28.58
2022-08-23T12:17:19.248Z,29.42
2022-08-23T12:19:53.759Z,28.90
2022-08-23T12:22:29.925Z,27.43
2022-08-23T12:25:08.557Z,28.27
2022-08-23T12:27:45.882Z,28.35
2022-08-23T12:30:25.435Z,28.23
2022-08-23T12:33:04.738Z,28.10
2022-08-23T12:36:23.659Z,28.54
2022-08-23T12:39:11.754Z,28.36
2022-08-23T12:42:05.759Z,27.30
2022-08-23T12:44:38.654Z,26.74
2022-08-23T12:47:21.740Z,26.87
2022-08-23T12:50:15.105Z,25.96
2022-08-23T12:52:42.277Z,26.48
2022-08-23T12:55:19.513Z,26.84
2022-08-23T12:57:56.533Z,27.70
2022-08-23T13:00:36.658Z,27.41
2022-08-23T13:03:04.734Z,27.05
2022-08-23T13:06:05.567Z,27.15
2022-08-23T13:08:43.636Z,27.53
2022-08-23T13:11:13.509Z,27.92
2022-08-23T13:13:44.237Z,27.50
2022-08-23T13:16:54.003Z,26.29
2022-08-23T13:19:34.700Z,25.84
2022-08-23T13:22:19.996Z,26.07
2022-08-23T13:28:03.648Z,26.91
2022-08-23T13:30:59.356Z,27.15
2022-08-23T13:33:26.371Z,26.74
2022-08-23T13:36:21.276Z,26.98
2022-08-23T13:38:49.826Z,28.15
2022-08-23T13:41:38.682Z,27.16
2022-08-23T13:44:08.654Z,27.29
2022-08-23T13:46:45.830Z,26.99
2022-08-23T13:49:27.207Z,27.51
2022-08-23T13:52:38.110Z,27.59
2022-08-23T13:54:50.873Z,26.87
2022-08-23T13:57:22.920Z,27.30
2022-08-23T13:59:56.115Z,27.94
2022-08-23T14:02:29.485Z,27.39
2022-08-23T14:04:56.420Z,27.58
2022-08-23T14:07:23.498Z,27.47
2022-08-23T14:09:54.516Z,27.58
2022-08-23T14:12:27.785Z,28.38
2022-08-23T14:14:57.215Z,28.38
2022-08-23T14:17:24.663Z,28.63
2022-08-23T14:20:31.980Z,27.76
2022-08-23T14:22:40.415Z,26.87
2022-08-23T14:25:08.870Z,27.60
2022-08-23T14:27:38.869Z,27.21
2022-08-23T14:30:25.294Z,27.06
2022-08-23T14:32:58.012Z,28.15
2022-08-23T14:35:32.547Z,28.34
2022-08-23T14:38:03.491Z,27.99
2022-08-23T14:40:35.508Z,27.84
2022-08-23T14:43:03.950Z,27.38
2022-08-23T14:45:34.511Z,27.18
2022-08-23T14:48:01.849Z,27.51
2022-08-23T14:50:28.874Z,27.69
2022-08-23T14:52:58.910Z,27.67
2022-08-23T14:55:28.441Z,28.23
2022-08-23T14:57:57.825Z,29.07
2022-08-23T15:00:26.892Z,28.31
2022-08-23T15:02:56.971Z,27.78
2022-08-23T15:05:24.253Z,27.56
2022-08-23T15:07:53.455Z,27.82
2022-08-23T15:13:21.790Z,28.75
2022-08-23T15:15:55.174Z,29.25
2022-08-23T15:18:24.661Z,29.93
2022-08-23T15:20:52.538Z,30.80
2022-08-23T15:23:24.287Z,30.21
2022-08-23T15:25:51.551Z,30.19
2022-08-23T15:28:23.361Z,29.91
2022-08-23T15:30:51.513Z,29.82
2022-08-23T15:33:26.853Z,30.34
2022-08-23T15:35:58.464Z,29.89
2022-08-23T15:38:31.226Z,30.75
2022-08-23T15:41:03.824Z,31.02
2022-08-23T15:43:34.702Z,31.29
2022-08-23T15:46:17.258Z,30.10
2022-08-23T15:49:34.081Z,30.45
2022-08-23T15:52:03.817Z,30.92
2022-08-23T15:54:31.337Z,31.45
2022-08-23T15:57:00.743Z,31.87
2022-08-23T15:59:28.105Z,31.96
2022-08-23T16:01:55.011Z,31.45
2022-08-23T16:04:22.018Z,31.27
2022-08-23T16:06:48.928Z,31.89
2022-08-23T16:09:23.181Z,32.40
2022-08-23T16:11:51.565Z,32.71
2022-08-23T16:14:18.710Z,31.77
2022-08-23T16:16:48.532Z,31.78
2022-08-23T16:19:16.684Z,32.34
2022-08-23T16:21:44.254Z,32.31
2022-08-23T16:24:14.042Z,32.33
2022-08-23T16:26:46.594Z,31.90
2022-08-23T16:29:19.810Z,31.26
2022-08-23T16:31:49.036Z,31.46
2022-08-23T16:34:19.735Z,31.75
2022-08-23T16:36:52.760Z,32.57
2022-08-23T16:39:23.697Z,32.77
2022-08-23T16:41:50.864Z,32.54
2022-08-23T16:44:18.719Z,32.45
2022-08-23T16:46:46.990Z,32.91
2022-08-23T16:49:18.643Z,32.05
2022-08-23T16:51:47.583Z,31.65
2022-08-23T16:54:15.887Z,31.72
2022-08-23T16:56:44.596Z,31.70
2022-08-23T16:59:13.691Z,31.38
2022-08-23T17:01:53.989Z,31.72
2022-08-23T17:04:30.370Z,31.92
2022-08-23T17:06:59.989Z,31.79
2022-08-23T17:09:29.648Z,32.01
2022-08-23T17:11:58.973Z,31.54
2022-08-23T17:14:32.429Z,31.70
2022-08-23T17:17:00.339Z,31.74
2022-08-23T17:19:30.783Z,32.29
2022-08-23T17:21:58.591Z,32.27
2022-08-23T17:24:26.980Z,32.15
2022-08-23T17:26:54.901Z,32.26
2022-08-23T17:29:22.184Z,32.55
2022-08-23T17:31:49.963Z,32.87
2022-08-23T17:34:18.023Z,33.08
2022-08-23T17:36:53.329Z,32.34
2022-08-23T17:39:27.517Z,32.16
2022-08-23T17:41:59.651Z,32.42
2022-08-23T17:44:27.484Z,32.56
2022-08-23T17:46:55.356Z,32.27
2022-08-23T17:49:26.522Z,32.53
2022-08-23T17:51:53.978Z,32.84
2022-08-23T17:54:25.919Z,32.77
2022-08-23T17:56:53.408Z,33.19
2022-08-23T17:59:26.334Z,33.19
2022-08-23T18:01:56.128Z,33.12
2022-08-23T18:04:26.579Z,33.18
2022-08-23T18:06:56.244Z,32.84
2022-08-23T18:09:26.095Z,33.40
2022-08-23T18:11:55.390Z,33.13
2022-08-23T18:14:27.911Z,33.46
2022-08-23T18:17:01.147Z,33.84
2022-08-23T18:19:29.135Z,33.86
2022-08-23T18:21:58.588Z,33.56
2022-08-23T18:24:29.751Z,34.11
2022-08-23T18:27:21.613Z,34.47
2022-08-23T18:29:51.347Z,34.66
2022-08-23T18:32:21.232Z,35.09
2022-08-23T18:34:52.802Z,34.66
2022-08-23T18:37:23.662Z,34.61
2022-08-23T18:39:51.914Z,34.94
2022-08-23T18:42:26.423Z,35.25
2022-08-23T18:44:54.799Z,35.29
2022-08-23T18:47:23.009Z,35.43
2022-08-23T18:49:56.856Z,35.27
2022-08-23T18:52:24.958Z,35.91
2022-08-23T18:54:52.825Z,36.23
2022-08-23T18:57:21.638Z,36.18
2022-08-23T18:59:53.429Z,36.41
2022-08-23T19:02:24.353Z,36.42
2022-08-23T19:04:54.116Z,36.49
2022-08-23T19:07:22.014Z,36.79
2022-08-23T19:09:49.107Z,36.77
2022-08-23T19:12:16.493Z,36.75
2022-08-23T19:14:50.562Z,36.65
2022-08-23T19:17:17.533Z,36.97
2022-08-23T19:19:44.482Z,37.09
2022-08-23T19:22:12.784Z,37.29
2022-08-23T19:24:41.205Z,36.93
2022-08-23T19:27:12.854Z,37.60
2022-08-23T19:29:46.802Z,37.65
2022-08-23T19:32:14.987Z,37.30
2022-08-23T19:34:42.614Z,37.93
2022-08-23T19:37:10.761Z,37.89
2022-08-23T19:39:49.333Z,38.09
2022-08-23T19:42:20.547Z,38.42
2022-08-23T19:44:48.155Z,38.14
2022-08-23T19:47:19.871Z,38.74
2022-08-23T19:49:48.495Z,38.49
2022-08-23T19:52:15.650Z,38.44
2022-08-23T19:54:42.541Z,38.65
2022-08-23T19:57:10.056Z,39.64
2022-08-23T19:59:39.281Z,39.24
2022-08-23T20:02:14.052Z,39.18
2022-08-23T20:04:41.618Z,39.06
2022-08-23T20:07:09.578Z,39.54
2022-08-23T20:09:36.638Z,39.97
2022-08-23T20:12:05.222Z,40.15
2022-08-23T20:14:33.233Z,40.13
2022-08-23T20:17:04.343Z,40.91
2022-08-23T20:19:31.479Z,40.48
2022-08-23T20:22:19.284Z,40.23
2022-08-23T20:24:53.063Z,40.61
2022-08-23T20:27:24.157Z,41.01
2022-08-23T20:30:00.066Z,41.33
2022-08-23T20:32:28.301Z,41.15
2022-08-23T20:34:55.310Z,41.22
2022-08-23T20:37:22.766Z,41.76
2022-08-23T20:39:50.171Z,42.44
2022-08-23T20:42:17.108Z,41.96
2022-08-23T20:44:44.559Z,42.67
2022-08-23T20:47:14.769Z,42.73
2022-08-23T20:49:44.902Z,42.66
2022-08-23T20:52:12.723Z,42.75
2022-08-23T20:54:43.307Z,42.63
2022-08-23T20:57:10.717Z,43.08
2022-08-23T20:59:44.489Z,43.32
2022-08-23T21:02:14.754Z,43.68
2022-08-23T21:04:42.343Z,43.93
2022-08-23T21:07:09.545Z,44.35
2022-08-23T21:09:36.626Z,43.90
2022-08-23T21:12:07.687Z,44.21
2022-08-23T21:14:36.243Z,44.30
2022-08-23T21:17:03.207Z,44.32
2022-08-23T21:19:33.074Z,44.19
2022-08-23T21:22:00.083Z,44.81
2022-08-23T21:24:29.998Z,44.95
2022-08-23T21:26:56.949Z,44.50
2022-08-23T21:29:23.846Z,45.10
2022-08-23T21:31:50.794Z,45.08
2022-08-23T21:34:20.304Z,45.16
2022-08-23T21:36:47.290Z,44.76
2022-08-23T21:39:17.182Z,45.37
2022-08-23T21:41:50.950Z,45.36
2022-08-23T21:44:22.255Z,45.55
2022-08-23T21:46:49.462Z,46.08
2022-08-23T21:49:17.137Z,46.08
2022-08-23T21:51:49.804Z,46.66
2022-08-23T21:54:20.030Z,46.56
2022-08-23T21:56:47.411Z,45.93
2022-08-23T21:59:18.049Z,46.42
2022-08-23T22:01:47.694Z,47.02
2022-08-23T22:04:18.734Z,46.86
2022-08-23T22:06:49.890Z,47.69
2022-08-23T22:09:31.090Z,47.58
2022-08-23T22:12:01.308Z,47.95
2022-08-23T22:14:32.267Z,48.66
2022-08-23T22:17:02.379Z,48.72
2022-08-23T22:19:32.389Z,49.37
2022-08-23T22:22:02.278Z,50.25
2022-08-23T22:24:31.784Z,50.42
2022-08-23T22:26:58.687Z,50.55
2022-08-23T22:29:25.683Z,50.38
2022-08-23T22:31:52.850Z,50.30
2022-08-23T22:34:22.814Z,50.26
2022-08-23T22:36:52.427Z,51.07
2022-08-23T22:39:22.904Z,51.07
2022-08-23T22:41:50.340Z,51.74
2022-08-23T22:44:17.556Z,51.08
2022-08-23T22:46:47.093Z,50.99
2022-08-23T22:49:19.269Z,50.77
2022-08-23T22:51:46.160Z,50.87
2022-08-23T22:54:16.047Z,50.88
2022-08-23T22:56:50.786Z,51.12
2022-08-23T22:59:25.219Z,50.64
2022-08-23T23:01:58.999Z,51.32
2022-08-23T23:04:28.493Z,51.33
2022-08-23T23:06:56.426Z,51.29
2022-08-23T23:09:26.487Z,50.76
2022-08-23T23:11:55.088Z,50.60
2022-08-23T23:14:22.824Z,50.75
2022-08-23T23:16:50.570Z,50.81
2022-08-23T23:19:36.511Z,51.29
2022-08-23T23:22:04.501Z,51.08
2022-08-23T23:24:36.934Z,51.06
2022-08-23T23:27:06.526Z,50.93
2022-08-23T23:29:34.210Z,50.80
2022-08-23T23:32:03.715Z,50.75
2022-08-23T23:34:32.892Z,50.75
2022-08-23T23:37:05.107Z,51.08
2022-08-23T23:39:34.695Z,51.04
2022-08-23T23:42:06.150Z,51.03
2022-08-23T23:44:35.636Z,50.97
2022-08-23T23:47:02.603Z,50.53
2022-08-23T23:49:32.450Z,50.75
2022-08-23T23:51:59.953Z,51.14
2022-08-23T23:54:26.941Z,51.56
2022-08-23T23:56:54.039Z,51.33
2022-08-23T23:59:24.191Z,51.59
